sensor_id;sensor_type;location;lat;lon;timestamp;P1;durP1;ratioP1;P2;durP2;ratioP2
49460;SDS011;35355;49.198;-0.368;2022-08-19T00:01:40;5.45;;;1.63;;
49460;SDS011;35355;49.198;-0.368;2022-08-19T00:04:07;5.30;;;1.70;;
49460;SDS011;35355;49.198;-0.368;2022-08-19T00:06:35;6.05;;;1.25;;
49460;SDS011;35355;49.198;-0.368;2022-08-19T00:09:03;4.03;;;1.38;;
49460;SDS011;35355;49.198;-0.368;2022-08-19T00:11:30;9.63;;;1.67;;
49460;SDS011;35355;49.198;-0.368;2022-08-19T00:13:56;5.45;;;1.30;;
49460;SDS011;35355;49.198;-0.368;2022-08-19T00:16:22;4.55;;;0.88;;
49460;SDS011;35355;49.198;-0.368;2022-08-19T00:18:49;3.67;;;1.02;;
49460;SDS011;35355;49.198;-0.368;2022-08-19T00:21:15;4.20;;;1.50;;
49460;SDS011;35355;49.198;-0.368;2022-08-19T00:23:40;5.40;;;1.17;;
49460;SDS011;35355;49.198;-0.368;2022-08-19T00:26:08;6.80;;;1.65;;
49460;SDS011;35355;49.198;-0.368;2022-08-19T00:28:34;5.55;;;1.63;;
49460;SDS011;35355;49.198;-0.368;2022-08-19T00:31:00;5.55;;;1.48;;
49460;SDS011;35355;49.198;-0.368;2022-08-19T00:33:28;8.73;;;1.60;;
49460;SDS011;35355;49.198;-0.368;2022-08-19T00:35:57;3.10;;;1.00;;
49460;SDS011;35355;49.198;-0.368;2022-08-19T00:38:24;8.18;;;1.40;;
49460;SDS011;35355;49.198;-0.368;2022-08-19T00:40:49;6.32;;;1.60;;
49460;SDS011;35355;49.198;-0.368;2022-08-19T00:43:18;4.93;;;0.77;;
49460;SDS011;35355;49.198;-0.368;2022-08-19T00:45:45;5.25;;;0.98;;
49460;SDS011;35355;49.198;-0.368;2022-08-19T00:48:12;7.63;;;1.48;;
49460;SDS011;35355;49.198;-0.368;2022-08-19T00:50:39;2.42;;;1.20;;
49460;SDS011;35355;49.198;-0.368;2022-08-19T00:53:08;6.97;;;1.75;;
49460;SDS011;35355;49.198;-0.368;2022-08-19T00:55:40;2.92;;;1.00;;
49460;SDS011;35355;49.198;-0.368;2022-08-19T00:58:08;7.65;;;1.60;;
49460;SDS011;35355;49.198;-0.368;2022-08-19T01:00:37;7.22;;;1.15;;
49460;SDS011;35355;49.198;-0.368;2022-08-19T01:03:04;6.93;;;1.30;;
49460;SDS011;35355;49.198;-0.368;2022-08-19T01:05:31;5.57;;;1.10;;
49460;SDS011;35355;49.198;-0.368;2022-08-19T01:07:58;4.15;;;1.10;;
49460;SDS011;35355;49.198;-0.368;2022-08-19T01:10:27;3.40;;;1.23;;
49460;SDS011;35355;49.198;-0.368;2022-08-19T01:12:57;6.82;;;1.60;;
49460;SDS011;35355;49.198;-0.368;2022-08-19T01:15:29;4.30;;;1.80;;
49460;SDS011;35355;49.198;-0.368;2022-08-19T01:17:58;7.30;;;1.17;;
49460;SDS011;35355;49.198;-0.368;2022-08-19T01:20:26;5.88;;;1.27;;
49460;SDS011;35355;49.198;-0.368;2022-08-19T01:22:53;4.45;;;1.27;;
49460;SDS011;35355;49.198;-0.368;2022-08-19T01:25:22;5.90;;;1.35;;
49460;SDS011;35355;49.198;-0.368;2022-08-19T01:30:23;8.23;;;1.23;;
49460;SDS011;35355;49.198;-0.368;2022-08-19T01:32:59;10.23;;;1.45;;
49460;SDS011;35355;49.198;-0.368;2022-08-19T01:35:25;4.88;;;1.13;;
49460;SDS011;35355;49.198;-0.368;2022-08-19T01:37:54;3.10;;;1.10;;
49460;SDS011;35355;49.198;-0.368;2022-08-19T01:40:23;3.03;;;1.40;;
49460;SDS011;35355;49.198;-0.368;2022-08-19T01:42:51;4.22;;;1.27;;
49460;SDS011;35355;49.198;-0.368;2022-08-19T01:45:18;5.40;;;1.40;;
49460;SDS011;35355;49.198;-0.368;2022-08-19T01:47:45;6.50;;;1.42;;
49460;SDS011;35355;49.198;-0.368;2022-08-19T01:50:11;5.95;;;1.20;;
49460;SDS011;35355;49.198;-0.368;2022-08-19T01:52:38;3.90;;;1.13;;
49460;SDS011;35355;49.198;-0.368;2022-08-19T01:55:06;5.07;;;0.90;;
49460;SDS011;35355;49.198;-0.368;2022-08-19T01:57:35;4.78;;;1.80;;
49460;SDS011;35355;49.198;-0.368;2022-08-19T02:00:01;2.92;;;1.15;;
49460;SDS011;35355;49.198;-0.368;2022-08-19T02:02:30;5.60;;;1.17;;
49460;SDS011;35355;49.198;-0.368;2022-08-19T02:04:56;4.55;;;1.17;;
49460;SDS011;35355;49.198;-0.368;2022-08-19T02:07:21;5.22;;;1.80;;
49460;SDS011;35355;49.198;-0.368;2022-08-19T02:09:47;5.40;;;1.20;;
49460;SDS011;35355;49.198;-0.368;2022-08-19T02:12:13;4.05;;;1.08;;
49460;SDS011;35355;49.198;-0.368;2022-08-19T02:14:39;2.90;;;1.20;;
49460;SDS011;35355;49.198;-0.368;2022-08-19T02:17:04;4.40;;;1.60;;
49460;SDS011;35355;49.198;-0.368;2022-08-19T02:19:30;3.42;;;0.90;;
49460;SDS011;35355;49.198;-0.368;2022-08-19T02:21:57;5.30;;;1.10;;
49460;SDS011;35355;49.198;-0.368;2022-08-19T02:24:23;5.70;;;0.90;;
49460;SDS011;35355;49.198;-0.368;2022-08-19T02:26:49;6.13;;;1.08;;
49460;SDS011;35355;49.198;-0.368;2022-08-19T02:29:14;7.32;;;1.63;;
49460;SDS011;35355;49.198;-0.368;2022-08-19T02:31:40;3.00;;;1.10;;
49460;SDS011;35355;49.198;-0.368;2022-08-19T02:34:05;4.03;;;0.90;;
49460;SDS011;35355;49.198;-0.368;2022-08-19T02:36:31;2.63;;;1.20;;
49460;SDS011;35355;49.198;-0.368;2022-08-19T02:38:56;5.63;;;1.45;;
49460;SDS011;35355;49.198;-0.368;2022-08-19T02:41:23;3.40;;;1.40;;
49460;SDS011;35355;49.198;-0.368;2022-08-19T02:43:56;4.00;;;1.55;;
49460;SDS011;35355;49.198;-0.368;2022-08-19T02:46:26;4.80;;;1.33;;
49460;SDS011;35355;49.198;-0.368;2022-08-19T02:48:56;8.50;;;1.83;;
49460;SDS011;35355;49.198;-0.368;2022-08-19T02:51:24;4.60;;;1.80;;
49460;SDS011;35355;49.198;-0.368;2022-08-19T02:53:52;3.70;;;1.20;;
49460;SDS011;35355;49.198;-0.368;2022-08-19T02:56:18;5.90;;;1.52;;
49460;SDS011;35355;49.198;-0.368;2022-08-19T02:58:45;13.25;;;1.67;;
49460;SDS011;35355;49.198;-0.368;2022-08-19T03:01:11;4.00;;;1.63;;
49460;SDS011;35355;49.198;-0.368;2022-08-19T03:03:45;5.30;;;1.45;;
49460;SDS011;35355;49.198;-0.368;2022-08-19T03:06:12;5.18;;;1.45;;
49460;SDS011;35355;49.198;-0.368;2022-08-19T03:08:40;7.72;;;2.83;;
49460;SDS011;35355;49.198;-0.368;2022-08-19T03:11:12;5.35;;;1.45;;
49460;SDS011;35355;49.198;-0.368;2022-08-19T03:13:39;10.02;;;1.58;;
49460;SDS011;35355;49.198;-0.368;2022-08-19T03:16:04;11.93;;;1.98;;
49460;SDS011;35355;49.198;-0.368;2022-08-19T03:18:30;7.93;;;1.85;;
49460;SDS011;35355;49.198;-0.368;2022-08-19T03:20:55;7.25;;;1.92;;
49460;SDS011;35355;49.198;-0.368;2022-08-19T03:23:22;7.82;;;1.75;;
49460;SDS011;35355;49.198;-0.368;2022-08-19T03:25:48;5.15;;;1.40;;
49460;SDS011;35355;49.198;-0.368;2022-08-19T03:28:15;6.40;;;1.90;;
49460;SDS011;35355;49.198;-0.368;2022-08-19T03:30:41;8.73;;;2.10;;
49460;SDS011;35355;49.198;-0.368;2022-08-19T03:33:09;8.48;;;1.75;;
49460;SDS011;35355;49.198;-0.368;2022-08-19T03:35:36;11.05;;;1.95;;
49460;SDS011;35355;49.198;-0.368;2022-08-19T03:38:05;4.97;;;1.17;;
49460;SDS011;35355;49.198;-0.368;2022-08-19T03:40:31;8.43;;;1.30;;
49460;SDS011;35355;49.198;-0.368;2022-08-19T03:42:59;3.05;;;1.30;;
49460;SDS011;35355;49.198;-0.368;2022-08-19T03:45:25;5.00;;;1.48;;
49460;SDS011;35355;49.198;-0.368;2022-08-19T03:47:50;6.80;;;1.40;;
49460;SDS011;35355;49.198;-0.368;2022-08-19T03:50:17;6.68;;;1.55;;
49460;SDS011;35355;49.198;-0.368;2022-08-19T03:52:47;4.32;;;1.20;;
49460;SDS011;35355;49.198;-0.368;2022-08-19T03:55:17;5.40;;;1.52;;
49460;SDS011;35355;49.198;-0.368;2022-08-19T03:57:43;6.68;;;1.08;;
49460;SDS011;35355;49.198;-0.368;2022-08-19T04:00:10;10.63;;;1.90;;
49460;SDS011;35355;49.198;-0.368;2022-08-19T04:02:36;6.75;;;1.48;;
49460;SDS011;35355;49.198;-0.368;2022-08-19T04:05:01;8.40;;;1.42;;
49460;SDS011;35355;49.198;-0.368;2022-08-19T04:07:26;2.83;;;1.10;;
49460;SDS011;35355;49.198;-0.368;2022-08-19T04:09:52;7.38;;;1.50;;
49460;SDS011;35355;49.198;-0.368;2022-08-19T04:12:18;9.15;;;1.58;;
49460;SDS011;35355;49.198;-0.368;2022-08-19T04:14:45;3.33;;;1.30;;
49460;SDS011;35355;49.198;-0.368;2022-08-19T04:17:10;5.95;;;2.03;;
49460;SDS011;35355;49.198;-0.368;2022-08-19T04:19:37;5.50;;;1.52;;
49460;SDS011;35355;49.198;-0.368;2022-08-19T04:22:03;6.15;;;2.17;;
49460;SDS011;35355;49.198;-0.368;2022-08-19T04:24:29;7.18;;;1.80;;
49460;SDS011;35355;49.198;-0.368;2022-08-19T04:26:54;9.75;;;2.03;;
49460;SDS011;35355;49.198;-0.368;2022-08-19T04:29:22;10.52;;;1.90;;
49460;SDS011;35355;49.198;-0.368;2022-08-19T04:31:50;10.98;;;2.70;;
49460;SDS011;35355;49.198;-0.368;2022-08-19T04:34:17;8.70;;;1.60;;
49460;SDS011;35355;49.198;-0.368;2022-08-19T04:36:47;10.20;;;1.35;;
49460;SDS011;35355;49.198;-0.368;2022-08-19T04:39:16;7.60;;;2.45;;
49460;SDS011;35355;49.198;-0.368;2022-08-19T04:41:44;7.38;;;1.50;;
49460;SDS011;35355;49.198;-0.368;2022-08-19T04:44:33;9.70;;;1.88;;
49460;SDS011;35355;49.198;-0.368;2022-08-19T04:46:59;7.22;;;1.55;;
49460;SDS011;35355;49.198;-0.368;2022-08-19T04:49:25;4.97;;;1.80;;
49460;SDS011;35355;49.198;-0.368;2022-08-19T04:51:51;5.57;;;1.60;;
49460;SDS011;35355;49.198;-0.368;2022-08-19T04:54:19;3.10;;;1.65;;
49460;SDS011;35355;49.198;-0.368;2022-08-19T04:56:47;5.88;;;2.00;;
49460;SDS011;35355;49.198;-0.368;2022-08-19T04:59:17;7.70;;;2.13;;
49460;SDS011;35355;49.198;-0.368;2022-08-19T05:01:45;7.20;;;1.52;;
49460;SDS011;35355;49.198;-0.368;2022-08-19T05:04:15;6.65;;;1.35;;
49460;SDS011;35355;49.198;-0.368;2022-08-19T05:06:42;3.42;;;1.50;;
49460;SDS011;35355;49.198;-0.368;2022-08-19T05:09:08;6.85;;;1.60;;
49460;SDS011;35355;49.198;-0.368;2022-08-19T05:11:34;4.60;;;1.20;;
49460;SDS011;35355;49.198;-0.368;2022-08-19T05:14:04;4.88;;;1.42;;
49460;SDS011;35355;49.198;-0.368;2022-08-19T05:16:30;8.38;;;1.67;;
49460;SDS011;35355;49.198;-0.368;2022-08-19T05:18:56;3.28;;;1.27;;
49460;SDS011;35355;49.198;-0.368;2022-08-19T05:41:43;6.18;;;1.38;;
49460;SDS011;35355;49.198;-0.368;2022-08-19T05:44:15;2.40;;;1.23;;
49460;SDS011;35355;49.198;-0.368;2022-08-19T05:46:43;4.68;;;1.67;;
49460;SDS011;35355;49.198;-0.368;2022-08-19T05:49:12;4.22;;;2.13;;
49460;SDS011;35355;49.198;-0.368;2022-08-19T05:51:39;4.82;;;1.60;;
49460;SDS011;35355;49.198;-0.368;2022-08-19T05:54:05;2.40;;;1.23;;
49460;SDS011;35355;49.198;-0.368;2022-08-19T05:56:33;3.58;;;1.20;;
49460;SDS011;35355;49.198;-0.368;2022-08-19T05:59:04;9.77;;;2.92;;
49460;SDS011;35355;49.198;-0.368;2022-08-19T06:01:34;11.55;;;1.42;;
49460;SDS011;35355;49.198;-0.368;2022-08-19T06:04:00;6.05;;;1.48;;
49460;SDS011;35355;49.198;-0.368;2022-08-19T06:06:27;6.82;;;2.05;;
49460;SDS011;35355;49.198;-0.368;2022-08-19T06:08:53;6.53;;;2.30;;
49460;SDS011;35355;49.198;-0.368;2022-08-19T06:11:23;5.68;;;1.25;;
49460;SDS011;35355;49.198;-0.368;2022-08-19T06:13:57;3.20;;;1.27;;
49460;SDS011;35355;49.198;-0.368;2022-08-19T06:16:26;6.55;;;1.67;;
49460;SDS011;35355;49.198;-0.368;2022-08-19T06:18:53;5.78;;;1.42;;
49460;SDS011;35355;49.198;-0.368;2022-08-19T06:21:22;4.80;;;1.30;;
49460;SDS011;35355;49.198;-0.368;2022-08-19T06:23:50;4.43;;;1.48;;
49460;SDS011;35355;49.198;-0.368;2022-08-19T06:26:17;4.47;;;1.55;;
49460;SDS011;35355;49.198;-0.368;2022-08-19T06:28:45;7.63;;;2.15;;
49460;SDS011;35355;49.198;-0.368;2022-08-19T06:31:15;6.80;;;1.85;;
49460;SDS011;35355;49.198;-0.368;2022-08-19T06:33:43;7.30;;;1.80;;
49460;SDS011;35355;49.198;-0.368;2022-08-19T06:36:44;7.60;;;1.20;;
49460;SDS011;35355;49.198;-0.368;2022-08-19T06:39:09;5.57;;;1.40;;
49460;SDS011;35355;49.198;-0.368;2022-08-19T06:41:38;8.07;;;1.50;;
49460;SDS011;35355;49.198;-0.368;2022-08-19T06:44:07;6.60;;;1.95;;
49460;SDS011;35355;49.198;-0.368;2022-08-19T06:46:35;6.80;;;1.52;;
49460;SDS011;35355;49.198;-0.368;2022-08-19T06:49:01;3.67;;;1.45;;
49460;SDS011;35355;49.198;-0.368;2022-08-19T06:51:28;5.53;;;1.52;;
49460;SDS011;35355;49.198;-0.368;2022-08-19T06:53:55;8.38;;;1.70;;
49460;SDS011;35355;49.198;-0.368;2022-08-19T06:56:25;5.78;;;1.17;;
49460;SDS011;35355;49.198;-0.368;2022-08-19T06:59:00;5.53;;;1.27;;
49460;SDS011;35355;49.198;-0.368;2022-08-19T07:02:05;9.20;;;1.60;;
49460;SDS011;35355;49.198;-0.368;2022-08-19T07:04:25;5.47;;;1.35;;
49460;SDS011;35355;49.198;-0.368;2022-08-19T07:06:58;3.55;;;1.25;;
49460;SDS011;35355;49.198;-0.368;2022-08-19T07:09:27;2.90;;;0.98;;
49460;SDS011;35355;49.198;-0.368;2022-08-19T07:11:53;3.80;;;1.20;;
49460;SDS011;35355;49.198;-0.368;2022-08-19T07:14:21;4.25;;;1.58;;
49460;SDS011;35355;49.198;-0.368;2022-08-19T07:16:50;8.38;;;1.08;;
49460;SDS011;35355;49.198;-0.368;2022-08-19T07:19:17;5.50;;;1.02;;
49460;SDS011;35355;49.198;-0.368;2022-08-19T07:21:44;5.57;;;1.35;;
49460;SDS011;35355;49.198;-0.368;2022-08-19T07:24:11;3.90;;;0.95;;
49460;SDS011;35355;49.198;-0.368;2022-08-19T07:26:38;6.50;;;1.13;;
49460;SDS011;35355;49.198;-0.368;2022-08-19T07:29:06;7.35;;;1.48;;
49460;SDS011;35355;49.198;-0.368;2022-08-19T07:31:32;8.85;;;1.67;;
49460;SDS011;35355;49.198;-0.368;2022-08-19T07:34:04;4.68;;;1.13;;
49460;SDS011;35355;49.198;-0.368;2022-08-19T07:36:36;3.90;;;1.20;;
49460;SDS011;35355;49.198;-0.368;2022-08-19T07:39:04;4.38;;;1.02;;
49460;SDS011;35355;49.198;-0.368;2022-08-19T07:41:32;4.82;;;1.05;;
49460;SDS011;35355;49.198;-0.368;2022-08-19T07:44:00;3.35;;;1.00;;
49460;SDS011;35355;49.198;-0.368;2022-08-19T07:46:32;5.78;;;1.25;;
49460;SDS011;35355;49.198;-0.368;2022-08-19T07:49:00;2.45;;;0.93;;
49460;SDS011;35355;49.198;-0.368;2022-08-19T07:51:27;4.72;;;1.02;;
49460;SDS011;35355;49.198;-0.368;2022-08-19T07:53:53;2.83;;;1.23;;
49460;SDS011;35355;49.198;-0.368;2022-08-19T07:56:19;4.28;;;1.00;;
49460;SDS011;35355;49.198;-0.368;2022-08-19T07:58:47;8.55;;;1.67;;
49460;SDS011;35355;49.198;-0.368;2022-08-19T08:01:17;3.75;;;1.02;;
49460;SDS011;35355;49.198;-0.368;2022-08-19T08:03:45;9.32;;;1.83;;
49460;SDS011;35355;49.198;-0.368;2022-08-19T08:06:30;4.03;;;1.25;;
49460;SDS011;35355;49.198;-0.368;2022-08-19T08:09:15;5.55;;;1.00;;
49460;SDS011;35355;49.198;-0.368;2022-08-19T08:11:50;3.63;;;0.90;;
49460;SDS011;35355;49.198;-0.368;2022-08-19T08:14:20;7.07;;;1.50;;
49460;SDS011;35355;49.198;-0.368;2022-08-19T08:16:48;4.60;;;1.65;;
49460;SDS011;35355;49.198;-0.368;2022-08-19T08:19:16;3.00;;;1.05;;
49460;SDS011;35355;49.198;-0.368;2022-08-19T08:21:45;3.55;;;1.13;;
49460;SDS011;35355;49.198;-0.368;2022-08-19T08:24:12;4.22;;;0.95;;
49460;SDS011;35355;49.198;-0.368;2022-08-19T08:26:38;6.20;;;1.23;;
49460;SDS011;35355;49.198;-0.368;2022-08-19T08:29:04;5.88;;;0.70;;
49460;SDS011;35355;49.198;-0.368;2022-08-19T08:31:32;5.82;;;1.10;;
49460;SDS011;35355;49.198;-0.368;2022-08-19T08:33:59;4.78;;;1.02;;
49460;SDS011;35355;49.198;-0.368;2022-08-19T08:36:26;2.55;;;0.63;;
49460;SDS011;35355;49.198;-0.368;2022-08-19T08:38:52;8.95;;;1.55;;
49460;SDS011;35355;49.198;-0.368;2022-08-19T08:41:23;6.72;;;1.10;;
49460;SDS011;35355;49.198;-0.368;2022-08-19T08:47:05;3.75;;;0.82;;
49460;SDS011;35355;49.198;-0.368;2022-08-19T08:49:50;4.60;;;0.70;;
49460;SDS011;35355;49.198;-0.368;2022-08-19T08:52:29;3.13;;;0.80;;
49460;SDS011;35355;49.198;-0.368;2022-08-19T08:55:03;2.92;;;0.95;;
49460;SDS011;35355;49.198;-0.368;2022-08-19T09:00:07;3.80;;;1.10;;
49460;SDS011;35355;49.198;-0.368;2022-08-19T09:02:37;7.13;;;1.35;;
49460;SDS011;35355;49.198;-0.368;2022-08-19T09:05:03;3.83;;;0.88;;
49460;SDS011;35355;49.198;-0.368;2022-08-19T09:07:41;2.60;;;0.80;;
49460;SDS011;35355;49.198;-0.368;2022-08-19T09:13:25;8.43;;;1.25;;
49460;SDS011;35355;49.198;-0.368;2022-08-19T09:18:24;1.60;;;0.55;;
49460;SDS011;35355;49.198;-0.368;2022-08-19T09:20:50;5.45;;;1.30;;
49460;SDS011;35355;49.198;-0.368;2022-08-19T09:23:16;4.85;;;1.00;;
49460;SDS011;35355;49.198;-0.368;2022-08-19T09:25:42;5.32;;;0.93;;
49460;SDS011;35355;49.198;-0.368;2022-08-19T09:28:08;8.48;;;1.15;;
49460;SDS011;35355;49.198;-0.368;2022-08-19T09:30:38;4.25;;;1.02;;
49460;SDS011;35355;49.198;-0.368;2022-08-19T09:33:05;7.60;;;1.35;;
49460;SDS011;35355;49.198;-0.368;2022-08-19T09:35:31;4.40;;;0.90;;
49460;SDS011;35355;49.198;-0.368;2022-08-19T09:38:00;3.17;;;0.90;;
49460;SDS011;35355;49.198;-0.368;2022-08-19T09:40:27;4.57;;;1.05;;
49460;SDS011;35355;49.198;-0.368;2022-08-19T09:42:54;4.50;;;0.65;;
49460;SDS011;35355;49.198;-0.368;2022-08-19T09:45:20;4.78;;;0.90;;
49460;SDS011;35355;49.198;-0.368;2022-08-19T09:47:47;3.45;;;0.63;;
49460;SDS011;35355;49.198;-0.368;2022-08-19T09:50:16;3.35;;;0.70;;
49460;SDS011;35355;49.198;-0.368;2022-08-19T09:52:43;5.97;;;0.55;;
49460;SDS011;35355;49.198;-0.368;2022-08-19T09:55:10;4.93;;;1.00;;
49460;SDS011;35355;49.198;-0.368;2022-08-19T09:57:37;2.53;;;0.93;;
49460;SDS011;35355;49.198;-0.368;2022-08-19T10:00:05;3.60;;;0.52;;
49460;SDS011;35355;49.198;-0.368;2022-08-19T10:02:32;3.08;;;0.60;;
49460;SDS011;35355;49.198;-0.368;2022-08-19T10:04:59;3.35;;;0.68;;
49460;SDS011;35355;49.198;-0.368;2022-08-19T10:07:43;2.45;;;0.70;;
49460;SDS011;35355;49.198;-0.368;2022-08-19T10:10:09;4.70;;;0.70;;
49460;SDS011;35355;49.198;-0.368;2022-08-19T10:12:36;4.07;;;0.60;;
49460;SDS011;35355;49.198;-0.368;2022-08-19T10:15:02;8.68;;;0.90;;
49460;SDS011;35355;49.198;-0.368;2022-08-19T10:17:29;2.42;;;0.80;;
49460;SDS011;35355;49.198;-0.368;2022-08-19T10:19:58;9.23;;;1.55;;
49460;SDS011;35355;49.198;-0.368;2022-08-19T10:22:24;2.45;;;0.50;;
49460;SDS011;35355;49.198;-0.368;2022-08-19T10:24:50;4.20;;;1.15;;
49460;SDS011;35355;49.198;-0.368;2022-08-19T10:27:16;5.80;;;0.82;;
49460;SDS011;35355;49.198;-0.368;2022-08-19T10:29:42;5.85;;;0.77;;
49460;SDS011;35355;49.198;-0.368;2022-08-19T10:32:08;6.20;;;1.15;;
49460;SDS011;35355;49.198;-0.368;2022-08-19T10:34:37;3.90;;;0.85;;
49460;SDS011;35355;49.198;-0.368;2022-08-19T10:37:04;4.50;;;0.70;;
49460;SDS011;35355;49.198;-0.368;2022-08-19T10:39:34;9.82;;;1.00;;
49460;SDS011;35355;49.198;-0.368;2022-08-19T10:42:05;3.50;;;0.95;;
49460;SDS011;35355;49.198;-0.368;2022-08-19T10:44:32;22.52;;;2.25;;
49460;SDS011;35355;49.198;-0.368;2022-08-19T10:47:00;7.88;;;1.23;;
49460;SDS011;35355;49.198;-0.368;2022-08-19T10:49:26;5.82;;;1.25;;
49460;SDS011;35355;49.198;-0.368;2022-08-19T10:51:51;5.95;;;0.98;;
49460;SDS011;35355;49.198;-0.368;2022-08-19T10:54:36;7.88;;;1.33;;
49460;SDS011;35355;49.198;-0.368;2022-08-19T10:57:20;4.50;;;1.13;;
49460;SDS011;35355;49.198;-0.368;2022-08-19T10:59:49;4.35;;;1.08;;
49460;SDS011;35355;49.198;-0.368;2022-08-19T11:02:14;4.15;;;0.73;;
49460;SDS011;35355;49.198;-0.368;2022-08-19T11:04:40;2.72;;;0.93;;
49460;SDS011;35355;49.198;-0.368;2022-08-19T11:07:06;2.75;;;1.10;;
49460;SDS011;35355;49.198;-0.368;2022-08-19T11:09:36;4.82;;;0.80;;
49460;SDS011;35355;49.198;-0.368;2022-08-19T11:14:33;3.45;;;1.50;;
49460;SDS011;35355;49.198;-0.368;2022-08-19T11:16:59;2.63;;;1.15;;
49460;SDS011;35355;49.198;-0.368;2022-08-19T11:19:25;7.30;;;1.10;;
49460;SDS011;35355;49.198;-0.368;2022-08-19T11:21:51;8.20;;;1.45;;
49460;SDS011;35355;49.198;-0.368;2022-08-19T11:24:24;5.43;;;1.20;;
49460;SDS011;35355;49.198;-0.368;2022-08-19T11:26:52;5.22;;;0.98;;
49460;SDS011;35355;49.198;-0.368;2022-08-19T11:29:22;4.15;;;1.67;;
49460;SDS011;35355;49.198;-0.368;2022-08-19T11:31:53;5.70;;;1.30;;
49460;SDS011;35355;49.198;-0.368;2022-08-19T11:34:26;5.80;;;1.42;;
49460;SDS011;35355;49.198;-0.368;2022-08-19T11:36:53;3.85;;;0.60;;
49460;SDS011;35355;49.198;-0.368;2022-08-19T11:39:22;2.50;;;0.70;;
49460;SDS011;35355;49.198;-0.368;2022-08-19T11:41:48;2.53;;;0.40;;
49460;SDS011;35355;49.198;-0.368;2022-08-19T11:44:14;3.25;;;0.40;;
49460;SDS011;35355;49.198;-0.368;2022-08-19T11:46:40;0.40;;;0.17;;
49460;SDS011;35355;49.198;-0.368;2022-08-19T11:49:12;1.55;;;0.40;;
49460;SDS011;35355;49.198;-0.368;2022-08-19T11:51:39;1.58;;;0.22;;
49460;SDS011;35355;49.198;-0.368;2022-08-19T11:54:07;0.47;;;0.30;;
49460;SDS011;35355;49.198;-0.368;2022-08-19T11:56:33;1.10;;;0.20;;
49460;SDS011;35355;49.198;-0.368;2022-08-19T11:59:00;0.55;;;0.22;;
49460;SDS011;35355;49.198;-0.368;2022-08-19T12:01:26;2.22;;;0.30;;
49460;SDS011;35355;49.198;-0.368;2022-08-19T12:03:53;0.88;;;0.30;;
49460;SDS011;35355;49.198;-0.368;2022-08-19T12:06:27;0.73;;;0.22;;
49460;SDS011;35355;49.198;-0.368;2022-08-19T12:08:59;2.25;;;0.30;;
49460;SDS011;35355;49.198;-0.368;2022-08-19T12:11:28;0.35;;;0.20;;
49460;SDS011;35355;49.198;-0.368;2022-08-19T12:13:54;0.52;;;0.20;;
49460;SDS011;35355;49.198;-0.368;2022-08-19T12:16:21;2.67;;;0.30;;
49460;SDS011;35355;49.198;-0.368;2022-08-19T12:18:52;0.77;;;0.20;;
49460;SDS011;35355;49.198;-0.368;2022-08-19T12:21:19;2.53;;;0.22;;
49460;SDS011;35355;49.198;-0.368;2022-08-19T12:23:48;0.32;;;0.13;;
49460;SDS011;35355;49.198;-0.368;2022-08-19T12:26:15;1.40;;;0.30;;
49460;SDS011;35355;49.198;-0.368;2022-08-19T12:28:41;0.45;;;0.30;;
49460;SDS011;35355;49.198;-0.368;2022-08-19T12:31:07;1.25;;;0.20;;
49460;SDS011;35355;49.198;-0.368;2022-08-19T12:33:33;0.10;;;0.10;;
49460;SDS011;35355;49.198;-0.368;2022-08-19T12:36:01;0.40;;;0.20;;
49460;SDS011;35355;49.198;-0.368;2022-08-19T12:38:29;2.25;;;0.28;;
49460;SDS011;35355;49.198;-0.368;2022-08-19T12:40:55;0.90;;;0.20;;
49460;SDS011;35355;49.198;-0.368;2022-08-19T12:43:21;0.52;;;0.15;;
49460;SDS011;35355;49.198;-0.368;2022-08-19T12:45:47;1.38;;;0.20;;
49460;SDS011;35355;49.198;-0.368;2022-08-19T12:48:13;0.95;;;0.20;;
49460;SDS011;35355;49.198;-0.368;2022-08-19T12:50:43;1.00;;;0.20;;
49460;SDS011;35355;49.198;-0.368;2022-08-19T12:53:13;0.28;;;0.15;;
49460;SDS011;35355;49.198;-0.368;2022-08-19T12:55:40;2.40;;;0.20;;
49460;SDS011;35355;49.198;-0.368;2022-08-19T12:58:08;1.15;;;0.10;;
49460;SDS011;35355;49.198;-0.368;2022-08-19T13:00:35;0.80;;;0.63;;
49460;SDS011;35355;49.198;-0.368;2022-08-19T13:03:01;1.65;;;0.20;;
49460;SDS011;35355;49.198;-0.368;2022-08-19T13:05:27;0.93;;;0.20;;
49460;SDS011;35355;49.198;-0.368;2022-08-19T13:07:55;2.78;;;0.38;;
49460;SDS011;35355;49.198;-0.368;2022-08-19T13:10:23;1.65;;;0.20;;
49460;SDS011;35355;49.198;-0.368;2022-08-19T13:12:52;1.85;;;0.25;;
49460;SDS011;35355;49.198;-0.368;2022-08-19T13:15:19;0.55;;;0.25;;
49460;SDS011;35355;49.198;-0.368;2022-08-19T13:17:47;0.77;;;0.20;;
49460;SDS011;35355;49.198;-0.368;2022-08-19T13:20:14;4.80;;;0.60;;
49460;SDS011;35355;49.198;-0.368;2022-08-19T13:22:42;3.17;;;0.30;;
49460;SDS011;35355;49.198;-0.368;2022-08-19T13:25:09;0.93;;;0.40;;
49460;SDS011;35355;49.198;-0.368;2022-08-19T13:27:36;0.73;;;0.20;;
49460;SDS011;35355;49.198;-0.368;2022-08-19T13:30:03;1.13;;;0.50;;
49460;SDS011;35355;49.198;-0.368;2022-08-19T13:32:49;2.33;;;0.40;;
49460;SDS011;35355;49.198;-0.368;2022-08-19T13:35:33;1.73;;;0.50;;
49460;SDS011;35355;49.198;-0.368;2022-08-19T13:37:59;3.30;;;0.90;;
49460;SDS011;35355;49.198;-0.368;2022-08-19T13:40:30;1.05;;;0.30;;
49460;SDS011;35355;49.198;-0.368;2022-08-19T13:43:00;2.15;;;0.30;;
49460;SDS011;35355;49.198;-0.368;2022-08-19T13:45:27;1.98;;;0.50;;
49460;SDS011;35355;49.198;-0.368;2022-08-19T13:47:55;1.15;;;0.47;;
49460;SDS011;35355;49.198;-0.368;2022-08-19T13:50:22;3.10;;;1.00;;
49460;SDS011;35355;49.198;-0.368;2022-08-19T14:11:44;2.35;;;0.45;;
49460;SDS011;35355;49.198;-0.368;2022-08-19T14:14:12;3.53;;;0.80;;
49460;SDS011;35355;49.198;-0.368;2022-08-19T14:16:38;0.80;;;0.43;;
49460;SDS011;35355;49.198;-0.368;2022-08-19T14:19:03;1.50;;;0.50;;
49460;SDS011;35355;49.198;-0.368;2022-08-19T14:21:29;0.73;;;0.40;;
49460;SDS011;35355;49.198;-0.368;2022-08-19T14:23:55;1.10;;;0.52;;
49460;SDS011;35355;49.198;-0.368;2022-08-19T14:26:21;2.90;;;0.70;;
49460;SDS011;35355;49.198;-0.368;2022-08-19T14:28:48;1.45;;;0.60;;
49460;SDS011;35355;49.198;-0.368;2022-08-19T14:31:15;5.35;;;0.93;;
49460;SDS011;35355;49.198;-0.368;2022-08-19T14:33:44;2.17;;;1.17;;
49460;SDS011;35355;49.198;-0.368;2022-08-19T14:36:11;4.82;;;0.80;;
49460;SDS011;35355;49.198;-0.368;2022-08-19T14:38:37;1.92;;;0.40;;
49460;SDS011;35355;49.198;-0.368;2022-08-19T14:41:09;1.95;;;0.35;;
49460;SDS011;35355;49.198;-0.368;2022-08-19T14:43:39;15.13;;;0.90;;
49460;SDS011;35355;49.198;-0.368;2022-08-19T14:46:04;4.20;;;0.60;;
49460;SDS011;35355;49.198;-0.368;2022-08-19T14:48:30;3.00;;;0.50;;
49460;SDS011;35355;49.198;-0.368;2022-08-19T14:50:56;3.00;;;0.52;;
49460;SDS011;35355;49.198;-0.368;2022-08-19T14:53:22;1.58;;;0.65;;
49460;SDS011;35355;49.198;-0.368;2022-08-19T14:55:47;3.08;;;0.40;;
49460;SDS011;35355;49.198;-0.368;2022-08-19T14:58:13;1.65;;;0.43;;
49460;SDS011;35355;49.198;-0.368;2022-08-19T15:00:40;1.52;;;0.30;;
49460;SDS011;35355;49.198;-0.368;2022-08-19T15:03:05;3.83;;;0.30;;
49460;SDS011;35355;49.198;-0.368;2022-08-19T15:05:31;4.68;;;0.50;;
49460;SDS011;35355;49.198;-0.368;2022-08-19T15:07:56;1.23;;;0.30;;
49460;SDS011;35355;49.198;-0.368;2022-08-19T15:10:22;0.95;;;0.30;;
49460;SDS011;35355;49.198;-0.368;2022-08-19T15:12:50;0.80;;;0.47;;
49460;SDS011;35355;49.198;-0.368;2022-08-19T15:15:18;0.40;;;0.30;;
49460;SDS011;35355;49.198;-0.368;2022-08-19T15:17:45;4.00;;;0.40;;
49460;SDS011;35355;49.198;-0.368;2022-08-19T15:20:12;0.65;;;0.35;;
49460;SDS011;35355;49.198;-0.368;2022-08-19T15:22:40;0.98;;;0.40;;
49460;SDS011;35355;49.198;-0.368;2022-08-19T15:25:07;1.15;;;0.20;;
49460;SDS011;35355;49.198;-0.368;2022-08-19T15:27:34;1.60;;;0.95;;
49460;SDS011;35355;49.198;-0.368;2022-08-19T15:30:00;3.22;;;0.65;;
49460;SDS011;35355;49.198;-0.368;2022-08-19T15:32:26;2.13;;;0.30;;
49460;SDS011;35355;49.198;-0.368;2022-08-19T15:34:53;1.77;;;0.30;;